Airfield :







YOU CAN JOIN US ON...

 
LOGIN :

Register | Disclaimer

   EN    FR    IT 

 









Legend :    VFR   Marginal VFR   IFR   Intensive IFR   Very Intensive IFR
Visi :
Ceiling :
>= 8 km
>= 3000ft
5 to 8 km
1000 to 3000 ft
1500m to 5 km
500 to 1000 ft
800 to 1500m
200 to 500 ft
< 800m
< 200 ft
Symbols :   Thunderstorms  Fog  Heavy snow  Heavy precipitations  Wind > 20 kt






- Airport Elevation : 124 ft
- IATA code : YGV


CYGV - Havre St Pierre

CURRENT METAR :
  • 260200Z AUTO 02002KT 9SM OVC110 M09/M11 A3026 RMK SLP252

EXPIRED METARs :
  • 260130Z AUTO 00000KT 9SM SCT012 BKN120 BKN170 OVC210 M11/M13 A3027 RMK SLP255
  • 260107Z AUTO VRB02KT 9SM SCT012 BKN120 BKN200 BKN220 M11/M13 A3028 RMK SLP258
  • 260000Z AUTO 00000KT 9SM OVC130 M12/M13 A3029 RMK SLP264

TAF TAF CYGV
Valid from the 26 at 02:00 until the 26 at 14:00 UTC


260138Z 2602/2614 04005KT P6SM SCT012 BKN120
TEMPO 2602/2604 BKN012
FM260400 04005KT 6SM BR SCT008 BKN012
TEMPO 2604/2614 3SM BR BKN008 BKN012
PROB30 2604/2614 2SM BR OVC004 RMK FCST BASED ON AUTO OBS. NXT FCST BY 260800Z



MET'MAP, your aeronautical weather chart ! - Copyright ORBIFLY December 2007 - Disclaimer

ORBIFLY MET'MAP TEAM :

Programming & Development : Alexandra Zaïnal
Concept & original design : Baudouin d'Aumeries
Assistance for programming : Marc-Olivier Méhu
Technical & hardware support : Manuel Goepfert

Contact : metmap@orbifly.com




SOURCES & CREDITS :

   NOAA